Time,TemperatureF,DewpointF,PressureIn,WindDirection,WindDirectionDegrees,WindSpeedMPH,WindSpeedGustMPH,Humidity,HourlyPrecipIn,Conditions,Clouds,dailyrainin,SoftwareType,DateUTC
2013-04-26 00:10:00,62.1,42.2,29.98,South,180,6.3,-999.0,48,-99.99,,,0.00,Acu-Link.com,2013-04-26 05:10:00,
2013-04-26 00:25:00,62.2,41.7,29.99,South,180,4.2,-999.0,47,-99.99,,,0.00,Acu-Link.com,2013-04-26 05:25:00,
2013-04-26 00:40:00,62.4,41.9,29.98,SSE,157,7.8,-999.0,47,-99.99,,,0.00,Acu-Link.com,2013-04-26 05:40:00,
2013-04-26 00:56:00,62.4,41.9,29.98,SSE,157,7.3,-999.0,47,-99.99,,,0.00,Acu-Link.com,2013-04-26 05:56:00,
2013-04-26 01:11:00,62.6,42.1,29.98,ESE,112,5.3,-999.0,47,-99.99,,,0.00,Acu-Link.com,2013-04-26 06:11:00,
2013-04-26 01:26:00,62.6,42.1,29.98,SE,135,7.3,-999.0,47,-99.99,,,0.00,Acu-Link.com,2013-04-26 06:26:00,
2013-04-26 01:41:00,62.6,42.1,29.96,South,180,5.3,-999.0,47,-99.99,,,0.00,Acu-Link.com,2013-04-26 06:41:00,
2013-04-26 01:56:00,62.6,42.1,29.98,SSE,157,2.7,-999.0,47,-99.99,,,0.00,Acu-Link.com,2013-04-26 06:56:00,
2013-04-26 02:11:00,62.6,42.6,29.98,SE,135,2.2,-999.0,48,-99.99,,,0.00,Acu-Link.com,2013-04-26 07:11:00,
2013-04-26 02:27:00,62.6,43.7,29.97,South,180,6.3,-999.0,50,-99.99,,,0.00,Acu-Link.com,2013-04-26 07:27:00,
2013-04-26 02:42:00,62.6,44.7,29.95,SSE,157,4.2,-999.0,52,-99.99,,,0.00,Acu-Link.com,2013-04-26 07:42:00,
2013-04-26 02:57:00,62.6,46.2,29.95,SSE,157,4.7,-999.0,55,-99.99,,,0.00,Acu-Link.com,2013-04-26 07:57:00,
2013-04-26 03:13:00,62.4,46.5,29.92,SSE,157,7.8,-999.0,56,-99.99,,,0.00,Acu-Link.com,2013-04-26 08:13:00,
2013-04-26 03:28:00,62.2,46.8,29.93,South,180,6.3,-999.0,57,-99.99,,,0.00,Acu-Link.com,2013-04-26 08:28:00,
2013-04-26 03:43:00,62.1,47.6,29.94,South,180,5.8,-999.0,59,-99.99,,,0.00,Acu-Link.com,2013-04-26 08:43:00,
2013-04-26 03:59:00,61.9,47.9,29.94,South,180,2.2,-999.0,60,-99.99,,,0.00,Acu-Link.com,2013-04-26 08:59:00,
2013-04-26 04:14:00,61.9,48.7,29.94,South,180,4.2,-999.0,62,-99.99,,,0.00,Acu-Link.com,2013-04-26 09:14:00,
2013-04-26 04:29:00,61.9,49.2,29.93,SSE,157,6.3,-999.0,63,-99.99,,,0.00,Acu-Link.com,2013-04-26 09:29:00,
2013-04-26 04:44:00,61.7,49.8,29.93,SSE,157,1.7,-999.0,65,-99.99,,,0.00,Acu-Link.com,2013-04-26 09:44:00,
2013-04-26 04:59:00,61.5,49.6,29.93,SSE,157,4.7,-999.0,65,-99.99,,,0.00,Acu-Link.com,2013-04-26 09:59:00,
2013-04-26 05:14:00,61.5,50.4,29.93,SE,135,6.3,-999.0,67,-99.99,,,0.00,Acu-Link.com,2013-04-26 10:14:00,
2013-04-26 05:29:00,61.3,50.6,29.92,SSE,157,2.7,-999.0,68,-99.99,,,0.00,Acu-Link.com,2013-04-26 10:29:00,
2013-04-26 05:45:00,61.2,51.3,29.92,South,180,4.2,-999.0,70,-99.99,,,0.00,Acu-Link.com,2013-04-26 10:45:00,
2013-04-26 06:00:00,61.2,52.5,29.95,SSE,157,2.7,-999.0,73,-99.99,,,0.00,Acu-Link.com,2013-04-26 11:00:00,
2013-04-26 06:15:00,61.2,52.8,29.96,SSE,157,3.2,-999.0,74,-99.99,,,0.00,Acu-Link.com,2013-04-26 11:15:00,
2013-04-26 06:31:00,61.2,53.6,29.95,SSE,157,0.0,-999.0,76,-99.99,,,0.00,Acu-Link.com,2013-04-26 11:31:00,
2013-04-26 06:46:00,60.8,53.5,29.91,ESE,112,7.3,-999.0,77,-99.99,,,0.00,Acu-Link.com,2013-04-26 11:46:00,
2013-04-26 07:01:00,60.6,54.0,29.94,SSE,157,4.2,-999.0,79,-99.99,,,0.00,Acu-Link.com,2013-04-26 12:01:00,
2013-04-26 07:16:00,60.6,54.4,29.93,SSE,157,8.3,-999.0,80,-99.99,,,0.00,Acu-Link.com,2013-04-26 12:16:00,
2013-04-26 07:32:00,60.6,54.4,29.95,SSE,157,3.2,-999.0,80,-99.99,,,0.00,Acu-Link.com,2013-04-26 12:32:00,
2013-04-26 07:47:00,60.6,54.7,29.95,SE,135,1.7,-999.0,81,-99.99,,,0.00,Acu-Link.com,2013-04-26 12:47:00,
2013-04-26 08:02:00,60.8,54.9,29.96,SSE,157,1.7,-999.0,81,-99.99,,,0.00,Acu-Link.com,2013-04-26 13:02:00,
2013-04-26 08:17:00,61.2,55.7,29.97,SSE,157,2.2,-999.0,82,-99.99,,,0.00,Acu-Link.com,2013-04-26 13:17:00,
2013-04-26 08:32:00,61.7,56.1,29.97,SSE,157,2.7,-999.0,82,-99.99,,,0.00,Acu-Link.com,2013-04-26 13:32:00,
2013-04-26 08:48:00,61.7,56.5,29.98,SSE,157,3.7,-999.0,83,-99.99,,,0.00,Acu-Link.com,2013-04-26 13:48:00,
2013-04-26 09:03:00,62.2,57.3,29.98,SSE,157,4.2,-999.0,84,-99.99,,,0.00,Acu-Link.com,2013-04-26 14:03:00,
2013-04-26 09:18:00,62.4,57.5,29.97,SE,135,3.2,-999.0,84,-99.99,,,0.00,Acu-Link.com,2013-04-26 14:18:00,
2013-04-26 09:34:00,63.5,58.2,29.98,South,180,2.7,-999.0,83,-99.99,,,0.00,Acu-Link.com,2013-04-26 14:34:00,
2013-04-26 09:49:00,63.9,58.3,29.98,SSE,157,2.7,-999.0,82,-99.99,,,0.00,Acu-Link.com,2013-04-26 14:49:00,
2013-04-26 10:04:00,64.6,59.0,29.97,South,180,3.7,-999.0,82,-99.99,,,0.00,Acu-Link.com,2013-04-26 15:04:00,
2013-04-26 10:19:00,65.1,59.1,29.98,SSE,157,4.2,-999.0,81,-99.99,,,0.00,Acu-Link.com,2013-04-26 15:19:00,
2013-04-26 10:35:00,65.7,59.4,29.97,South,180,2.7,-999.0,80,-99.99,,,0.00,Acu-Link.com,2013-04-26 15:35:00,
2013-04-26 10:50:00,65.5,59.5,29.98,SSE,157,4.7,-999.0,81,-99.99,,,0.00,Acu-Link.com,2013-04-26 15:50:00,
2013-04-26 11:06:00,65.5,59.9,29.98,SSE,157,6.8,-999.0,82,-99.99,,,0.00,Acu-Link.com,2013-04-26 16:06:00,
2013-04-26 11:21:00,66.0,60.3,29.99,SE,135,3.7,-999.0,82,-99.99,,,0.00,Acu-Link.com,2013-04-26 16:21:00,
2013-04-26 11:37:00,67.6,60.8,29.98,SSE,157,5.8,-999.0,79,-99.99,,,0.00,Acu-Link.com,2013-04-26 16:37:00,
2013-04-26 11:52:00,68.7,60.8,29.98,SSE,157,4.7,-999.0,76,-99.99,,,0.00,Acu-Link.com,2013-04-26 16:52:00,
2013-04-26 12:07:00,70.5,61.4,29.98,West,270,6.8,-999.0,73,-99.99,,,0.00,Acu-Link.com,2013-04-26 17:07:00,
2013-04-26 12:22:00,72.1,62.2,29.97,SSW,202,3.2,-999.0,71,-99.99,,,0.00,Acu-Link.com,2013-04-26 17:22:00,
2013-04-26 12:37:00,70.7,61.6,29.97,South,180,3.7,-999.0,73,-99.99,,,0.00,Acu-Link.com,2013-04-26 17:37:00,
2013-04-26 12:52:00,72.5,61.7,29.96,South,180,5.8,-999.0,69,-99.99,,,0.00,Acu-Link.com,2013-04-26 17:52:00,
2013-04-26 13:08:00,75.9,62.8,29.95,South,180,6.3,-999.0,64,-99.99,,,0.00,Acu-Link.com,2013-04-26 18:08:00,
2013-04-26 13:23:00,76.1,63.0,29.94,South,180,7.8,-999.0,64,-99.99,,,0.00,Acu-Link.com,2013-04-26 18:23:00,
2013-04-26 13:38:00,75.6,62.5,29.94,SE,135,4.7,-999.0,64,-99.99,,,0.00,Acu-Link.com,2013-04-26 18:38:00,
2013-04-26 13:53:00,75.9,62.4,29.92,WSW,247,2.7,-999.0,63,-99.99,,,0.00,Acu-Link.com,2013-04-26 18:53:00,
2013-04-26 14:08:00,76.5,61.1,29.93,SSW,202,6.8,-999.0,59,-99.99,,,0.00,Acu-Link.com,2013-04-26 19:08:00,
2013-04-26 14:23:00,80.4,61.7,29.91,SSW,202,4.7,-999.0,53,-99.99,,,0.00,Acu-Link.com,2013-04-26 19:23:00,
2013-04-26 14:38:00,80.2,61.5,29.89,SW,225,5.8,-999.0,53,-99.99,,,0.00,Acu-Link.com,2013-04-26 19:38:00,
2013-04-26 14:53:00,80.8,62.0,29.90,South,180,4.7,-999.0,53,-99.99,,,0.00,Acu-Link.com,2013-04-26 19:53:00,
2013-04-26 15:09:00,81.7,61.2,29.89,South,180,18.6,-999.0,50,-99.99,,,0.00,Acu-Link.com,2013-04-26 20:09:00,
2013-04-26 15:24:00,82.4,62.4,29.89,SSE,157,7.3,-999.0,51,-99.99,,,0.00,Acu-Link.com,2013-04-26 20:24:00,
2013-04-26 15:39:00,82.0,62.6,29.88,SSE,157,3.7,-999.0,52,-99.99,,,0.00,Acu-Link.com,2013-04-26 20:39:00,
2013-04-26 15:55:00,82.8,62.8,29.88,SSE,157,7.3,-999.0,51,-99.99,,,0.00,Acu-Link.com,2013-04-26 20:55:00,
2013-04-26 16:10:00,82.9,62.3,29.87,SSE,157,9.4,-999.0,50,-99.99,,,0.00,Acu-Link.com,2013-04-26 21:10:00,
2013-04-26 16:25:00,82.6,62.0,29.85,SSE,157,4.7,-999.0,50,-99.99,,,0.00,Acu-Link.com,2013-04-26 21:25:00,
2013-04-26 16:40:00,80.8,61.5,29.86,SE,135,5.8,-999.0,52,-99.99,,,0.00,Acu-Link.com,2013-04-26 21:40:00,
2013-04-26 16:56:00,81.9,62.5,29.85,SSE,157,6.8,-999.0,52,-99.99,,,0.00,Acu-Link.com,2013-04-26 21:56:00,
2013-04-26 17:11:00,82.2,62.8,29.85,SW,225,6.3,-999.0,52,-99.99,,,0.00,Acu-Link.com,2013-04-26 22:11:00,
2013-04-26 17:26:00,82.0,62.6,29.85,NNE,22,6.3,-999.0,52,-99.99,,,0.00,Acu-Link.com,2013-04-26 22:26:00,
2013-04-26 17:41:00,82.0,62.6,29.84,South,180,10.9,-999.0,52,-99.99,,,0.00,Acu-Link.com,2013-04-26 22:41:00,
2013-04-26 17:57:00,83.3,62.7,29.84,SE,135,6.3,-999.0,50,-99.99,,,0.00,Acu-Link.com,2013-04-26 22:57:00,
2013-04-26 18:12:00,82.8,62.8,29.84,SSW,202,3.7,-999.0,51,-99.99,,,0.00,Acu-Link.com,2013-04-26 23:12:00,
2013-04-26 18:27:00,82.4,62.4,29.85,South,180,5.3,-999.0,51,-99.99,,,0.00,Acu-Link.com,2013-04-26 23:27:00,
2013-04-26 18:42:00,81.9,62.5,29.84,South,180,5.8,-999.0,52,-99.99,,,0.00,Acu-Link.com,2013-04-26 23:42:00,
2013-04-26 19:13:00,79.7,62.1,29.84,SE,135,4.7,-999.0,55,-99.99,,,0.00,Acu-Link.com,2013-04-27 00:13:00,
2013-04-26 19:28:00,79.2,62.1,29.85,SSE,157,7.8,-999.0,56,-99.99,,,0.00,Acu-Link.com,2013-04-27 00:28:00,
2013-04-26 19:43:00,77.7,61.7,29.84,SSE,157,8.3,-999.0,58,-99.99,,,0.00,Acu-Link.com,2013-04-27 00:43:00,
2013-04-26 19:59:00,76.5,62.5,29.84,SE,135,5.8,-999.0,62,-99.99,,,0.00,Acu-Link.com,2013-04-27 00:59:00,
2013-04-26 20:14:00,75.7,62.2,29.84,South,180,8.3,-999.0,63,-99.99,,,0.00,Acu-Link.com,2013-04-27 01:14:00,
2013-04-26 20:29:00,74.8,62.2,29.85,SSE,157,3.7,-999.0,65,-99.99,,,0.00,Acu-Link.com,2013-04-27 01:29:00,
2013-04-26 20:44:00,74.1,62.4,29.85,SSE,157,5.3,-999.0,67,-99.99,,,0.00,Acu-Link.com,2013-04-27 01:44:00,
2013-04-26 20:59:00,73.8,62.6,29.85,ESE,112,4.2,-999.0,68,-99.99,,,0.00,Acu-Link.com,2013-04-27 01:59:00,
2013-04-26 21:14:00,72.9,62.1,29.86,SSE,157,2.2,-999.0,69,-99.99,,,0.00,Acu-Link.com,2013-04-27 02:14:00,
2013-04-26 21:30:00,72.1,62.2,29.86,South,180,2.7,-999.0,71,-99.99,,,0.00,Acu-Link.com,2013-04-27 02:30:00,
2013-04-26 21:45:00,72.0,62.9,29.87,SSE,157,0.0,-999.0,73,-99.99,,,0.00,Acu-Link.com,2013-04-27 02:45:00,
2013-04-26 22:01:00,71.2,62.5,29.88,SSE,157,2.7,-999.0,74,-99.99,,,0.00,Acu-Link.com,2013-04-27 03:01:00,
2013-04-26 22:16:00,71.2,62.9,29.88,SSE,157,3.7,-999.0,75,-99.99,,,0.00,Acu-Link.com,2013-04-27 03:16:00,
2013-04-26 22:31:00,70.5,62.9,29.88,SSE,157,3.2,-999.0,77,-99.99,,,0.00,Acu-Link.com,2013-04-27 03:31:00,
2013-04-26 22:46:00,70.2,63.4,29.89,South,180,6.3,-999.0,79,-99.99,,,0.00,Acu-Link.com,2013-04-27 03:46:00,
2013-04-26 23:02:00,70.0,63.5,29.90,SSW,202,4.7,-999.0,80,-99.99,,,0.00,Acu-Link.com,2013-04-27 04:02:00,
2013-04-26 23:17:00,70.0,63.9,29.91,South,180,2.7,-999.0,81,-99.99,,,0.00,Acu-Link.com,2013-04-27 04:17:00,
2013-04-26 23:32:00,69.3,63.6,29.92,South,180,0.0,-999.0,82,-99.99,,,0.00,Acu-Link.com,2013-04-27 04:32:00,
2013-04-26 23:47:00,68.7,63.3,29.92,SSW,202,2.2,-999.0,83,-99.99,,,0.00,Acu-Link.com,2013-04-27 04:47:00,